sensor_id;sensor_type;location;lat;lon;timestamp;pressure;altitude;pressure_sealevel;temperature
50206;BMP280;36098;48.390;10.856;2022-09-02T00:01:13;96178.81;;;25.63
50206;BMP280;36098;48.390;10.856;2022-09-02T00:03:38;96178.28;;;25.61
50206;BMP280;36098;48.390;10.856;2022-09-02T00:06:04;96174.28;;;25.64
50206;BMP280;36098;48.390;10.856;2022-09-02T00:08:30;96168.00;;;25.60
50206;BMP280;36098;48.390;10.856;2022-09-02T00:10:59;96165.44;;;25.55
50206;BMP280;36098;48.390;10.856;2022-09-02T00:13:31;96167.19;;;25.59
50206;BMP280;36098;48.390;10.856;2022-09-02T00:15:57;96163.22;;;25.62
50206;BMP280;36098;48.390;10.856;2022-09-02T00:18:23;96161.16;;;25.59
50206;BMP280;36098;48.390;10.856;2022-09-02T00:20:49;96159.56;;;25.58
50206;BMP280;36098;48.390;10.856;2022-09-02T00:23:15;96167.34;;;25.49
50206;BMP280;36098;48.390;10.856;2022-09-02T00:25:41;96166.25;;;25.50
50206;BMP280;36098;48.390;10.856;2022-09-02T00:28:08;96161.16;;;25.59
50206;BMP280;36098;48.390;10.856;2022-09-02T00:30:34;96158.25;;;25.55
50206;BMP280;36098;48.390;10.856;2022-09-02T00:33:00;96157.50;;;25.55
50206;BMP280;36098;48.390;10.856;2022-09-02T00:35:26;96159.63;;;25.53
50206;BMP280;36098;48.390;10.856;2022-09-02T00:37:51;96148.59;;;25.46
50206;BMP280;36098;48.390;10.856;2022-09-02T00:40:17;96158.00;;;25.57
50206;BMP280;36098;48.390;10.856;2022-09-02T00:42:43;96156.69;;;25.54
50206;BMP280;36098;48.390;10.856;2022-09-02T00:45:09;96154.84;;;25.55
50206;BMP280;36098;48.390;10.856;2022-09-02T00:47:35;96151.72;;;25.53
50206;BMP280;36098;48.390;10.856;2022-09-02T00:50:03;96149.00;;;25.58
50206;BMP280;36098;48.390;10.856;2022-09-02T00:52:31;96143.72;;;25.58
50206;BMP280;36098;48.390;10.856;2022-09-02T00:55:19;96141.91;;;25.53
50206;BMP280;36098;48.390;10.856;2022-09-02T00:57:48;96139.00;;;25.55
50206;BMP280;36098;48.390;10.856;2022-09-02T01:00:19;96137.75;;;25.47
50206;BMP280;36098;48.390;10.856;2022-09-02T01:02:57;96136.69;;;25.48
50206;BMP280;36098;48.390;10.856;2022-09-02T01:05:25;96139.31;;;25.48
50206;BMP280;36098;48.390;10.856;2022-09-02T01:07:53;96133.19;;;25.53
50206;BMP280;36098;48.390;10.856;2022-09-02T01:10:22;96132.13;;;25.54
50206;BMP280;36098;48.390;10.856;2022-09-02T01:12:48;96142.47;;;25.50
50206;BMP280;36098;48.390;10.856;2022-09-02T01:15:14;96140.59;;;25.51
50206;BMP280;36098;48.390;10.856;2022-09-02T01:17:47;96132.16;;;25.49
50206;BMP280;36098;48.390;10.856;2022-09-02T01:20:15;96135.38;;;25.46
50206;BMP280;36098;48.390;10.856;2022-09-02T01:22:41;96135.94;;;25.43
50206;BMP280;36098;48.390;10.856;2022-09-02T01:25:14;96140.16;;;25.44
50206;BMP280;36098;48.390;10.856;2022-09-02T01:27:40;96144.31;;;25.50
50206;BMP280;36098;48.390;10.856;2022-09-02T01:30:07;96142.75;;;25.49
50206;BMP280;36098;48.390;10.856;2022-09-02T01:32:33;96138.03;;;25.46
50206;BMP280;36098;48.390;10.856;2022-09-02T01:34:58;96139.81;;;25.50
50206;BMP280;36098;48.390;10.856;2022-09-02T01:37:24;96136.19;;;25.46
50206;BMP280;36098;48.390;10.856;2022-09-02T01:39:50;96135.38;;;25.46
50206;BMP280;36098;48.390;10.856;2022-09-02T01:42:17;96128.81;;;25.43
50206;BMP280;36098;48.390;10.856;2022-09-02T01:44:43;96129.31;;;25.45
50206;BMP280;36098;48.390;10.856;2022-09-02T01:47:28;96133.25;;;25.48
50206;BMP280;36098;48.390;10.856;2022-09-02T01:49:54;96123.72;;;25.47
50206;BMP280;36098;48.390;10.856;2022-09-02T01:52:22;96131.72;;;25.42
50206;BMP280;36098;48.390;10.856;2022-09-02T01:54:48;96131.97;;;25.45
50206;BMP280;36098;48.390;10.856;2022-09-02T01:57:13;96133.88;;;25.40
50206;BMP280;36098;48.390;10.856;2022-09-02T01:59:39;96128.09;;;25.38
50206;BMP280;36098;48.390;10.856;2022-09-02T02:02:05;96122.00;;;25.37
50206;BMP280;36098;48.390;10.856;2022-09-02T02:04:31;96122.22;;;25.41
50206;BMP280;36098;48.390;10.856;2022-09-02T02:06:56;96127.22;;;25.42
50206;BMP280;36098;48.390;10.856;2022-09-02T02:09:22;96122.81;;;25.38
50206;BMP280;36098;48.390;10.856;2022-09-02T02:11:48;96130.25;;;25.31
50206;BMP280;36098;48.390;10.856;2022-09-02T02:14:14;96133.47;;;25.28
50206;BMP280;36098;48.390;10.856;2022-09-02T02:16:39;96123.63;;;25.33
50206;BMP280;36098;48.390;10.856;2022-09-02T02:19:05;96123.38;;;25.35
50206;BMP280;36098;48.390;10.856;2022-09-02T02:21:31;96130.00;;;25.32
50206;BMP280;36098;48.390;10.856;2022-09-02T02:23:56;96120.50;;;25.31
50206;BMP280;36098;48.390;10.856;2022-09-02T02:26:22;96128.69;;;25.30
50206;BMP280;36098;48.390;10.856;2022-09-02T02:28:47;96122.81;;;25.38
50206;BMP280;36098;48.390;10.856;2022-09-02T02:31:12;96122.84;;;25.33
50206;BMP280;36098;48.390;10.856;2022-09-02T02:33:38;96117.84;;;25.31
50206;BMP280;36098;48.390;10.856;2022-09-02T02:36:04;96113.31;;;25.37
50206;BMP280;36098;48.390;10.856;2022-09-02T02:38:34;96111.72;;;25.36
50206;BMP280;36098;48.390;10.856;2022-09-02T02:40:59;96114.91;;;25.33
50206;BMP280;36098;48.390;10.856;2022-09-02T02:43:26;96105.69;;;25.30
50206;BMP280;36098;48.390;10.856;2022-09-02T02:45:51;96102.50;;;25.33
50206;BMP280;36098;48.390;10.856;2022-09-02T02:48:19;96108.00;;;25.37
50206;BMP280;36098;48.390;10.856;2022-09-02T02:50:44;96103.78;;;25.36
50206;BMP280;36098;48.390;10.856;2022-09-02T02:53:09;96108.78;;;25.37
50206;BMP280;36098;48.390;10.856;2022-09-02T02:55:37;96105.41;;;25.32
50206;BMP280;36098;48.390;10.856;2022-09-02T02:58:02;96108.78;;;25.37
50206;BMP280;36098;48.390;10.856;2022-09-02T03:00:30;96104.88;;;25.35
50206;BMP280;36098;48.390;10.856;2022-09-02T03:02:58;96097.63;;;25.40
50206;BMP280;36098;48.390;10.856;2022-09-02T03:05:24;96102.44;;;25.38
50206;BMP280;36098;48.390;10.856;2022-09-02T03:07:50;96090.84;;;25.34
50206;BMP280;36098;48.390;10.856;2022-09-02T03:10:15;96094.28;;;25.35
50206;BMP280;36098;48.390;10.856;2022-09-02T03:12:41;96098.50;;;25.36
50206;BMP280;36098;48.390;10.856;2022-09-02T03:15:08;96090.13;;;25.29
50206;BMP280;36098;48.390;10.856;2022-09-02T03:17:35;96088.53;;;25.28
50206;BMP280;36098;48.390;10.856;2022-09-02T03:20:00;96090.69;;;25.26
50206;BMP280;36098;48.390;10.856;2022-09-02T03:22:26;96096.22;;;25.29
50206;BMP280;36098;48.390;10.856;2022-09-02T03:24:51;96097.53;;;25.27
50206;BMP280;36098;48.390;10.856;2022-09-02T03:27:17;96092.50;;;25.30
50206;BMP280;36098;48.390;10.856;2022-09-02T03:29:42;96097.47;;;25.32
50206;BMP280;36098;48.390;10.856;2022-09-02T03:32:09;96093.25;;;25.31
50206;BMP280;36098;48.390;10.856;2022-09-02T03:34:35;96087.97;;;25.31
50206;BMP280;36098;48.390;10.856;2022-09-02T03:37:01;96092.56;;;25.25
50206;BMP280;36098;48.390;10.856;2022-09-02T03:39:26;96090.19;;;25.24
50206;BMP280;36098;48.390;10.856;2022-09-02T03:41:51;96089.69;;;25.22
50206;BMP280;36098;48.390;10.856;2022-09-02T03:44:17;96082.56;;;25.17
50206;BMP280;36098;48.390;10.856;2022-09-02T03:46:43;96081.50;;;25.23
50206;BMP280;36098;48.390;10.856;2022-09-02T03:49:08;96088.53;;;25.28
50206;BMP280;36098;48.390;10.856;2022-09-02T03:51:34;96086.78;;;25.23
50206;BMP280;36098;48.390;10.856;2022-09-02T03:53:59;96084.41;;;25.22
50206;BMP280;36098;48.390;10.856;2022-09-02T03:56:28;96084.69;;;25.15
50206;BMP280;36098;48.390;10.856;2022-09-02T03:58:53;96074.94;;;25.16
50206;BMP280;36098;48.390;10.856;2022-09-02T04:01:21;96082.81;;;25.21
50206;BMP280;36098;48.390;10.856;2022-09-02T04:03:48;96088.34;;;25.24
50206;BMP280;36098;48.390;10.856;2022-09-02T04:06:15;96081.00;;;25.16
50206;BMP280;36098;48.390;10.856;2022-09-02T04:08:41;96078.31;;;25.21
50206;BMP280;36098;48.390;10.856;2022-09-02T04:11:12;96085.97;;;25.23
50206;BMP280;36098;48.390;10.856;2022-09-02T04:13:38;96077.19;;;25.27
50206;BMP280;36098;48.390;10.856;2022-09-02T04:16:12;96083.19;;;25.33
50206;BMP280;36098;48.390;10.856;2022-09-02T04:18:38;96075.84;;;25.30
50206;BMP280;36098;48.390;10.856;2022-09-02T04:21:04;96076.41;;;25.27
50206;BMP280;36098;48.390;10.856;2022-09-02T04:23:31;96074.91;;;25.21
50206;BMP280;36098;48.390;10.856;2022-09-02T04:25:57;96075.16;;;25.19
50206;BMP280;36098;48.390;10.856;2022-09-02T04:28:22;96072.25;;;25.21
50206;BMP280;36098;48.390;10.856;2022-09-02T04:30:48;96079.03;;;25.27
50206;BMP280;36098;48.390;10.856;2022-09-02T04:33:13;96075.06;;;25.29
50206;BMP280;36098;48.390;10.856;2022-09-02T04:35:43;96068.47;;;25.27
50206;BMP280;36098;48.390;10.856;2022-09-02T04:38:09;96073.63;;;25.13
50206;BMP280;36098;48.390;10.856;2022-09-02T04:40:38;96070.91;;;25.23
50206;BMP280;36098;48.390;10.856;2022-09-02T04:43:04;96070.69;;;25.20
50206;BMP280;36098;48.390;10.856;2022-09-02T04:45:29;96075.47;;;25.13
50206;BMP280;36098;48.390;10.856;2022-09-02T04:47:55;96064.91;;;25.13
50206;BMP280;36098;48.390;10.856;2022-09-02T04:50:20;96071.00;;;25.13
50206;BMP280;36098;48.390;10.856;2022-09-02T04:52:45;96074.59;;;25.22
50206;BMP280;36098;48.390;10.856;2022-09-02T04:55:10;96068.53;;;25.22
50206;BMP280;36098;48.390;10.856;2022-09-02T04:57:36;96069.66;;;25.16
50206;BMP280;36098;48.390;10.856;2022-09-02T05:00:05;96071.56;;;25.11
50206;BMP280;36098;48.390;10.856;2022-09-02T05:02:31;96068.84;;;25.15
50206;BMP280;36098;48.390;10.856;2022-09-02T05:04:57;96082.53;;;25.22
50206;BMP280;36098;48.390;10.856;2022-09-02T05:07:22;96078.03;;;25.23
50206;BMP280;36098;48.390;10.856;2022-09-02T05:09:47;96074.91;;;25.21
50206;BMP280;36098;48.390;10.856;2022-09-02T05:12:13;96079.19;;;25.12
50206;BMP280;36098;48.390;10.856;2022-09-02T05:14:39;96078.13;;;25.13
50206;BMP280;36098;48.390;10.856;2022-09-02T05:17:04;96075.16;;;25.19
50206;BMP280;36098;48.390;10.856;2022-09-02T05:19:29;96074.84;;;25.26
50206;BMP280;36098;48.390;10.856;2022-09-02T05:21:55;96073.38;;;25.15
50206;BMP280;36098;48.390;10.856;2022-09-02T05:24:24;96085.72;;;25.19
50206;BMP280;36098;48.390;10.856;2022-09-02T05:26:49;96083.91;;;25.20
50206;BMP280;36098;48.390;10.856;2022-09-02T05:29:16;96078.66;;;25.15
50206;BMP280;36098;48.390;10.856;2022-09-02T05:31:45;96083.75;;;25.07
50206;BMP280;36098;48.390;10.856;2022-09-02T05:34:11;96081.25;;;25.20
50206;BMP280;36098;48.390;10.856;2022-09-02T05:36:36;96081.00;;;25.16
50206;BMP280;36098;48.390;10.856;2022-09-02T05:39:02;96075.72;;;25.16
50206;BMP280;36098;48.390;10.856;2022-09-02T05:41:29;96079.72;;;25.14
50206;BMP280;36098;48.390;10.856;2022-09-02T05:43:56;96074.69;;;25.13
50206;BMP280;36098;48.390;10.856;2022-09-02T05:46:24;96073.91;;;25.12
50206;BMP280;36098;48.390;10.856;2022-09-02T05:48:50;96078.66;;;25.15
50206;BMP280;36098;48.390;10.856;2022-09-02T05:53:59;96090.25;;;25.19
50206;BMP280;36098;48.390;10.856;2022-09-02T05:56:25;96078.69;;;25.10
50206;BMP280;36098;48.390;10.856;2022-09-02T05:58:53;96075.47;;;25.13
50206;BMP280;36098;48.390;10.856;2022-09-02T06:01:18;96070.19;;;25.18
50206;BMP280;36098;48.390;10.856;2022-09-02T06:03:44;96073.38;;;25.15
50206;BMP280;36098;48.390;10.856;2022-09-02T06:06:10;96073.69;;;25.09
50206;BMP280;36098;48.390;10.856;2022-09-02T06:08:35;96069.50;;;25.03
50206;BMP280;36098;48.390;10.856;2022-09-02T06:11:02;96073.13;;;25.12
50206;BMP280;36098;48.390;10.856;2022-09-02T06:13:36;96068.63;;;25.12
50206;BMP280;36098;48.390;10.856;2022-09-02T06:16:02;96072.84;;;25.13
50206;BMP280;36098;48.390;10.856;2022-09-02T06:18:27;96077.06;;;25.14
50206;BMP280;36098;48.390;10.856;2022-09-02T06:23:19;96070.06;;;25.05
50206;BMP280;36098;48.390;10.856;2022-09-02T06:25:46;96076.59;;;25.07
50206;BMP280;36098;48.390;10.856;2022-09-02T06:28:12;96075.34;;;25.05
50206;BMP280;36098;48.390;10.856;2022-09-02T06:30:40;96078.19;;;25.08
50206;BMP280;36098;48.390;10.856;2022-09-02T06:33:05;96070.31;;;25.03
50206;BMP280;36098;48.390;10.856;2022-09-02T06:35:35;96075.03;;;25.06
50206;BMP280;36098;48.390;10.856;2022-09-02T06:38:01;96074.25;;;25.06
50206;BMP280;36098;48.390;10.856;2022-09-02T06:40:27;96081.13;;;25.07
50206;BMP280;36098;48.390;10.856;2022-09-02T06:42:52;96072.91;;;25.08
50206;BMP280;36098;48.390;10.856;2022-09-02T06:45:18;96077.56;;;25.16
50206;BMP280;36098;48.390;10.856;2022-09-02T06:47:44;96076.59;;;25.07
50206;BMP280;36098;48.390;10.856;2022-09-02T06:50:10;96074.25;;;25.06
50206;BMP280;36098;48.390;10.856;2022-09-02T06:52:35;96073.19;;;25.07
50206;BMP280;36098;48.390;10.856;2022-09-02T06:55:01;96081.88;;;25.07
50206;BMP280;36098;48.390;10.856;2022-09-02T06:57:27;96078.19;;;25.08
50206;BMP280;36098;48.390;10.856;2022-09-02T06:59:59;96072.13;;;25.08
50206;BMP280;36098;48.390;10.856;2022-09-02T07:02:26;96080.25;;;25.11
50206;BMP280;36098;48.390;10.856;2022-09-02T07:04:57;96088.19;;;25.11
50206;BMP280;36098;48.390;10.856;2022-09-02T07:07:42;96077.63;;;25.11
50206;BMP280;36098;48.390;10.856;2022-09-02T07:10:12;96081.88;;;25.07
50206;BMP280;36098;48.390;10.856;2022-09-02T07:12:39;96078.75;;;25.05
50206;BMP280;36098;48.390;10.856;2022-09-02T07:15:05;96076.59;;;25.07
50206;BMP280;36098;48.390;10.856;2022-09-02T07:17:31;96076.09;;;25.05
50206;BMP280;36098;48.390;10.856;2022-09-02T07:19:56;96080.75;;;25.13
50206;BMP280;36098;48.390;10.856;2022-09-02T07:24:50;96080.31;;;25.06
50206;BMP280;36098;48.390;10.856;2022-09-02T07:27:15;96078.19;;;25.08
50206;BMP280;36098;48.390;10.856;2022-09-02T07:29:41;96070.25;;;25.08
50206;BMP280;36098;48.390;10.856;2022-09-02T07:32:08;96073.69;;;25.09
50206;BMP280;36098;48.390;10.856;2022-09-02T07:34:34;96064.63;;;25.14
50206;BMP280;36098;48.390;10.856;2022-09-02T07:37:01;96067.03;;;25.11
50206;BMP280;36098;48.390;10.856;2022-09-02T07:39:29;96067.69;;;25.03
50206;BMP280;36098;48.390;10.856;2022-09-02T07:41:57;96068.75;;;25.02
50206;BMP280;36098;48.390;10.856;2022-09-02T07:44:27;96077.63;;;25.11
50206;BMP280;36098;48.390;10.856;2022-09-02T07:47:04;96070.75;;;25.10
50206;BMP280;36098;48.390;10.856;2022-09-02T07:49:34;96071.38;;;25.02
50206;BMP280;36098;48.390;10.856;2022-09-02T07:52:01;96070.56;;;25.07
50206;BMP280;36098;48.390;10.856;2022-09-02T07:54:26;96070.25;;;25.08
50206;BMP280;36098;48.390;10.856;2022-09-02T07:56:52;96065.03;;;25.03
50206;BMP280;36098;48.390;10.856;2022-09-02T07:59:18;96071.88;;;25.04
50206;BMP280;36098;48.390;10.856;2022-09-02T08:01:46;96071.63;;;25.06
50206;BMP280;36098;48.390;10.856;2022-09-02T08:04:13;96065.94;;;25.17
50206;BMP280;36098;48.390;10.856;2022-09-02T08:06:38;96069.69;;;25.11
50206;BMP280;36098;48.390;10.856;2022-09-02T08:09:06;96070.75;;;25.10
50206;BMP280;36098;48.390;10.856;2022-09-02T08:11:35;96063.16;;;25.04
50206;BMP280;36098;48.390;10.856;2022-09-02T08:14:04;96070.19;;;25.13
50206;BMP280;36098;48.390;10.856;2022-09-02T08:16:29;96065.94;;;25.17
50206;BMP280;36098;48.390;10.856;2022-09-02T08:21:19;96061.88;;;25.01
50206;BMP280;36098;48.390;10.856;2022-09-02T08:23:45;96053.91;;;25.06
50206;BMP280;36098;48.390;10.856;2022-09-02T08:26:13;96060.75;;;25.07
50206;BMP280;36098;48.390;10.856;2022-09-02T08:28:38;96060.41;;;25.13
50206;BMP280;36098;48.390;10.856;2022-09-02T08:31:05;96055.63;;;25.15
50206;BMP280;36098;48.390;10.856;2022-09-02T08:33:31;96057.16;;;25.21
50206;BMP280;36098;48.390;10.856;2022-09-02T08:36:01;96057.47;;;25.20
50206;BMP280;36098;48.390;10.856;2022-09-02T08:38:26;96056.97;;;25.18
50206;BMP280;36098;48.390;10.856;2022-09-02T08:40:52;96054.34;;;25.13
50206;BMP280;36098;48.390;10.856;2022-09-02T08:46:03;96051.00;;;25.08
50206;BMP280;36098;48.390;10.856;2022-09-02T08:48:58;96052.72;;;25.17
50206;BMP280;36098;48.390;10.856;2022-09-02T08:51:30;96054.88;;;25.15
50206;BMP280;36098;48.390;10.856;2022-09-02T08:54:12;96050.66;;;25.14
50206;BMP280;36098;48.390;10.856;2022-09-02T08:56:41;96060.88;;;25.20
50206;BMP280;36098;48.390;10.856;2022-09-02T08:59:08;96056.47;;;25.11
50206;BMP280;36098;48.390;10.856;2022-09-02T09:01:44;96059.63;;;25.13
50206;BMP280;36098;48.390;10.856;2022-09-02T09:04:18;96054.88;;;25.15
50206;BMP280;36098;48.390;10.856;2022-09-02T09:09:40;96049.06;;;25.13
50206;BMP280;36098;48.390;10.856;2022-09-02T09:12:15;96055.34;;;25.22
50206;BMP280;36098;48.390;10.856;2022-09-02T09:20:07;96053.25;;;25.19
50206;BMP280;36098;48.390;10.856;2022-09-02T09:22:37;96033.91;;;25.23
50206;BMP280;36098;48.390;10.856;2022-09-02T09:25:09;96039.97;;;25.24
50206;BMP280;36098;48.390;10.856;2022-09-02T09:27:36;96042.63;;;25.24
50206;BMP280;36098;48.390;10.856;2022-09-02T09:30:01;96041.53;;;25.25
50206;BMP280;36098;48.390;10.856;2022-09-02T09:32:41;96041.53;;;25.25
50206;BMP280;36098;48.390;10.856;2022-09-02T09:35:18;96036.25;;;25.25
50206;BMP280;36098;48.390;10.856;2022-09-02T09:37:52;96027.75;;;25.28
50206;BMP280;36098;48.390;10.856;2022-09-02T09:42:50;96028.75;;;25.32
50206;BMP280;36098;48.390;10.856;2022-09-02T09:45:43;96029.34;;;25.29
50206;BMP280;36098;48.390;10.856;2022-09-02T09:51:13;96030.84;;;25.35
50206;BMP280;36098;48.390;10.856;2022-09-02T09:53:44;96016.56;;;25.36
50206;BMP280;36098;48.390;10.856;2022-09-02T09:56:23;96017.91;;;25.33
50206;BMP280;36098;48.390;10.856;2022-09-02T09:58:51;96022.63;;;25.36
50206;BMP280;36098;48.390;10.856;2022-09-02T10:01:22;96022.84;;;25.40
50206;BMP280;36098;48.390;10.856;2022-09-02T10:03:57;96017.00;;;25.43
50206;BMP280;36098;48.390;10.856;2022-09-02T10:12:05;96020.78;;;25.55
50206;BMP280;36098;48.390;10.856;2022-09-02T10:14:46;96013.06;;;25.59
50206;BMP280;36098;48.390;10.856;2022-09-02T10:17:42;96004.56;;;25.62
50206;BMP280;36098;48.390;10.856;2022-09-02T10:31:28;96010.06;;;25.65
50206;BMP280;36098;48.390;10.856;2022-09-02T10:36:33;96014.56;;;25.65
50206;BMP280;36098;48.390;10.856;2022-09-02T10:39:21;96006.13;;;25.63
50206;BMP280;36098;48.390;10.856;2022-09-02T10:41:53;96010.34;;;25.64
50206;BMP280;36098;48.390;10.856;2022-09-02T10:57:45;95995.41;;;25.73
50206;BMP280;36098;48.390;10.856;2022-09-02T11:00:20;95988.63;;;25.67
50206;BMP280;36098;48.390;10.856;2022-09-02T11:05:40;95987.00;;;25.52
50206;BMP280;36098;48.390;10.856;2022-09-02T11:08:10;95981.44;;;25.54
50206;BMP280;36098;48.390;10.856;2022-09-02T11:10:42;95977.72;;;25.55
50206;BMP280;36098;48.390;10.856;2022-09-02T11:14:06;95977.91;;;25.40
50206;BMP280;36098;48.390;10.856;2022-09-02T11:16:16;95975.41;;;25.30
50206;BMP280;36098;48.390;10.856;2022-09-02T11:18:51;95981.25;;;25.27
50206;BMP280;36098;48.390;10.856;2022-09-02T11:21:30;95970.56;;;25.37
50206;BMP280;36098;48.390;10.856;2022-09-02T11:24:19;95974.13;;;25.27
50206;BMP280;36098;48.390;10.856;2022-09-02T11:26:52;95962.00;;;25.26
50206;BMP280;36098;48.390;10.856;2022-09-02T11:29:29;95962.88;;;25.17
50206;BMP280;36098;48.390;10.856;2022-09-02T11:32:03;95952.16;;;25.09
50206;BMP280;36098;48.390;10.856;2022-09-02T11:34:36;95961.16;;;25.08
50206;BMP280;36098;48.390;10.856;2022-09-02T11:37:07;95956.88;;;25.12
50206;BMP280;36098;48.390;10.856;2022-09-02T11:39:40;95962.94;;;25.12
50206;BMP280;36098;48.390;10.856;2022-09-02T11:42:17;95957.72;;;25.07
50206;BMP280;36098;48.390;10.856;2022-09-02T11:53:23;95951.88;;;25.10
50206;BMP280;36098;48.390;10.856;2022-09-02T12:01:20;95944.09;;;25.00
50206;BMP280;36098;48.390;10.856;2022-09-02T12:04:19;95948.78;;;25.03
50206;BMP280;36098;48.390;10.856;2022-09-02T12:09:51;95956.16;;;25.06
50206;BMP280;36098;48.390;10.856;2022-09-02T12:21:27;95961.34;;;24.93
50206;BMP280;36098;48.390;10.856;2022-09-02T12:26:29;95958.94;;;24.96
50206;BMP280;36098;48.390;10.856;2022-09-02T12:31:50;95960.72;;;25.01
50206;BMP280;36098;48.390;10.856;2022-09-02T12:36:57;95949.16;;;24.97
50206;BMP280;36098;48.390;10.856;2022-09-02T12:42:08;95950.94;;;25.01
50206;BMP280;36098;48.390;10.856;2022-09-02T12:44:48;95943.25;;;25.05
50206;BMP280;36098;48.390;10.856;2022-09-02T12:50:31;95940.38;;;25.01
50206;BMP280;36098;48.390;10.856;2022-09-02T12:56:01;95932.72;;;25.00
50206;BMP280;36098;48.390;10.856;2022-09-02T12:58:32;95931.38;;;25.02
50206;BMP280;36098;48.390;10.856;2022-09-02T13:30:04;95904.38;;;25.05
50206;BMP280;36098;48.390;10.856;2022-09-02T13:32:30;95896.72;;;25.04
50206;BMP280;36098;48.390;10.856;2022-09-02T13:35:01;95900.66;;;25.06
50206;BMP280;36098;48.390;10.856;2022-09-02T13:37:43;95904.38;;;25.05
50206;BMP280;36098;48.390;10.856;2022-09-02T13:40:32;95904.38;;;25.05
50206;BMP280;36098;48.390;10.856;2022-09-02T13:45:38;95892.47;;;25.08
50206;BMP280;36098;48.390;10.856;2022-09-02T13:50:34;95891.44;;;25.04
50206;BMP280;36098;48.390;10.856;2022-09-02T13:53:04;95889.34;;;25.06
50206;BMP280;36098;48.390;10.856;2022-09-02T13:55:31;95885.91;;;25.05
50206;BMP280;36098;48.390;10.856;2022-09-02T13:58:00;95893.25;;;25.08
50206;BMP280;36098;48.390;10.856;2022-09-02T14:00:38;95901.66;;;25.10
50206;BMP280;36098;48.390;10.856;2022-09-02T14:03:07;95891.09;;;25.10
50206;BMP280;36098;48.390;10.856;2022-09-02T14:05:34;95887.19;;;25.08
50206;BMP280;36098;48.390;10.856;2022-09-02T14:11:22;95886.63;;;25.11
50206;BMP280;36098;48.390;10.856;2022-09-02T14:13:49;95882.69;;;25.08
50206;BMP280;36098;48.390;10.856;2022-09-02T14:19:03;95883.25;;;25.05
50206;BMP280;36098;48.390;10.856;2022-09-02T14:21:29;95868.47;;;25.04
50206;BMP280;36098;48.390;10.856;2022-09-02T14:23:55;95866.91;;;25.03
50206;BMP280;36098;48.390;10.856;2022-09-02T14:26:41;95871.91;;;25.05
50206;BMP280;36098;48.390;10.856;2022-09-02T14:29:09;95863.19;;;25.04
50206;BMP280;36098;48.390;10.856;2022-09-02T14:31:36;95851.81;;;25.04
50206;BMP280;36098;48.390;10.856;2022-09-02T14:34:02;95846.75;;;25.07
50206;BMP280;36098;48.390;10.856;2022-09-02T14:36:32;95844.13;;;25.07
50206;BMP280;36098;48.390;10.856;2022-09-02T14:39:15;95832.00;;;25.06
50206;BMP280;36098;48.390;10.856;2022-09-02T14:41:51;95844.13;;;25.07
50206;BMP280;36098;48.390;10.856;2022-09-02T14:44:32;95835.13;;;25.08
50206;BMP280;36098;48.390;10.856;2022-09-02T14:47:00;95830.91;;;25.07
50206;BMP280;36098;48.390;10.856;2022-09-02T14:49:30;95831.91;;;25.11
50206;BMP280;36098;48.390;10.856;2022-09-02T14:51:59;95829.25;;;25.11
50206;BMP280;36098;48.390;10.856;2022-09-02T14:54:39;95831.63;;;25.13
50206;BMP280;36098;48.390;10.856;2022-09-02T14:57:34;95836.91;;;25.13
50206;BMP280;36098;48.390;10.856;2022-09-02T15:00:12;95833.47;;;25.12
50206;BMP280;36098;48.390;10.856;2022-09-02T15:02:41;95825.53;;;25.12
50206;BMP280;36098;48.390;10.856;2022-09-02T15:05:11;95821.28;;;25.16
50206;BMP280;36098;48.390;10.856;2022-09-02T15:08:13;95822.84;;;25.17
50206;BMP280;36098;48.390;10.856;2022-09-02T15:11:10;95823.06;;;25.20
50206;BMP280;36098;48.390;10.856;2022-09-02T15:13:59;95811.47;;;25.16
50206;BMP280;36098;48.390;10.856;2022-09-02T15:16:24;95819.97;;;25.32
50206;BMP280;36098;48.390;10.856;2022-09-02T15:18:50;95808.75;;;25.40
50206;BMP280;36098;48.390;10.856;2022-09-02T15:21:22;95809.25;;;25.42
50206;BMP280;36098;48.390;10.856;2022-09-02T15:23:49;95808.56;;;25.50
50206;BMP280;36098;48.390;10.856;2022-09-02T15:26:16;95806.66;;;25.69
50206;BMP280;36098;48.390;10.856;2022-09-02T15:34:50;95813.94;;;25.45
50206;BMP280;36098;48.390;10.856;2022-09-02T15:37:16;95810.81;;;25.43
50206;BMP280;36098;48.390;10.856;2022-09-02T15:39:41;95807.09;;;25.44
50206;BMP280;36098;48.390;10.856;2022-09-02T15:42:06;95808.31;;;25.33
50206;BMP280;36098;48.390;10.856;2022-09-02T15:44:31;95820.66;;;25.24
50206;BMP280;36098;48.390;10.856;2022-09-02T15:46:57;95811.63;;;25.25
50206;BMP280;36098;48.390;10.856;2022-09-02T15:49:22;95808.63;;;25.31
50206;BMP280;36098;48.390;10.856;2022-09-02T15:51:48;95807.09;;;25.44
50206;BMP280;36098;48.390;10.856;2022-09-02T15:54:15;95801.94;;;25.52
50206;BMP280;36098;48.390;10.856;2022-09-02T15:56:43;95796.84;;;25.56
50206;BMP280;36098;48.390;10.856;2022-09-02T15:59:11;95797.75;;;25.65
50206;BMP280;36098;48.390;10.856;2022-09-02T16:01:42;95804.09;;;25.64
50206;BMP280;36098;48.390;10.856;2022-09-02T16:04:08;95803.25;;;25.68
50206;BMP280;36098;48.390;10.856;2022-09-02T16:06:35;95811.78;;;25.79
50206;BMP280;36098;48.390;10.856;2022-09-02T16:09:02;95812.53;;;25.66
50206;BMP280;36098;48.390;10.856;2022-09-02T16:11:27;95812.06;;;25.77
50206;BMP280;36098;48.390;10.856;2022-09-02T16:13:53;95805.06;;;26.00
50206;BMP280;36098;48.390;10.856;2022-09-02T16:16:18;95807.97;;;26.12
50206;BMP280;36098;48.390;10.856;2022-09-02T16:18:49;95805.44;;;26.20
50206;BMP280;36098;48.390;10.856;2022-09-02T16:21:15;95798.88;;;26.31
50206;BMP280;36098;48.390;10.856;2022-09-02T16:23:41;95796.81;;;26.42
50206;BMP280;36098;48.390;10.856;2022-09-02T16:26:29;95800.66;;;26.36
50206;BMP280;36098;48.390;10.856;2022-09-02T16:29:01;95801.91;;;26.38
50206;BMP280;36098;48.390;10.856;2022-09-02T16:31:30;95803.94;;;26.41
50206;BMP280;36098;48.390;10.856;2022-09-02T16:34:04;95815.25;;;26.33
50206;BMP280;36098;48.390;10.856;2022-09-02T16:36:33;95814.16;;;26.34
50206;BMP280;36098;48.390;10.856;2022-09-02T16:39:00;95812.91;;;26.32